Time;durP1;ratioP1;P1;durP2;ratioP2;P2;SDS_P1;SDS_P2;PMS_P1;PMS_P2;Temp;Humidity;BMP_temperature;BMP_pressure;BME280_temperature;BME280_humidity;BME280_pressure;Samples;Min_cycle;Max_cycle;Signal;HPM_P1;HPM_P2
2023/05/21 00:00:24;;;;;;;11.80;8.93;;;12.60;99.90;;;;;;5046132;28;20730;-78
2023/05/21 00:02:51;;;;;;;13.73;9.23;;;12.50;99.90;;;;;;5034298;28;20208;-79
2023/05/21 00:05:20;;;;;;;11.80;9.03;;;12.20;99.90;;;;;;5048536;28;20195;-78
2023/05/21 00:07:47;;;;;;;14.57;10.00;;;12.30;99.90;;;;;;5049429;28;20254;-78
2023/05/21 00:10:14;;;;;;;12.03;9.70;;;12.30;99.90;;;;;;5047301;28;20896;-78
2023/05/21 00:12:41;;;;;;;13.97;9.47;;;12.50;99.90;;;;;;5048928;28;20195;-78
2023/05/21 00:15:09;;;;;;;14.03;10.03;;;12.50;99.90;;;;;;5036604;28;20220;-78
2023/05/21 00:17:36;;;;;;;12.77;8.93;;;12.60;99.90;;;;;;5047280;28;20195;-78
2023/05/21 00:20:08;;;;;;;14.73;9.63;;;12.60;99.90;;;;;;5030940;28;20199;-79
2023/05/21 00:22:36;;;;;;;13.03;9.40;;;12.60;99.90;;;;;;5047347;27;20230;-79
2023/05/21 00:25:03;;;;;;;15.17;9.70;;;12.50;99.90;;;;;;5029543;28;20580;-78
2023/05/21 00:27:30;;;;;;;11.57;8.87;;;12.40;99.90;;;;;;5038375;28;20591;-78
2023/05/21 00:29:56;;;;;;;13.47;9.30;;;12.30;99.90;;;;;;5033136;28;20204;-78
2023/05/21 00:32:23;;;;;;;11.93;8.63;;;12.30;99.90;;;;;;5031010;28;20208;-78
2023/05/21 00:34:50;;;;;;;13.20;9.20;;;12.30;99.90;;;;;;5032978;28;20221;-78
2023/05/21 00:37:17;;;;;;;13.50;9.30;;;12.30;99.90;;;;;;5030545;28;20195;-78
2023/05/21 00:39:45;;;;;;;14.17;9.47;;;12.40;99.90;;;;;;5031331;28;20667;-78
2023/05/21 00:42:16;;;;;;;13.57;8.87;;;12.40;99.90;;;;;;5035455;28;20205;-78
2023/05/21 00:44:44;;;;;;;14.60;9.57;;;12.30;99.90;;;;;;5049724;28;20291;-78
2023/05/21 00:47:12;;;;;;;14.27;9.50;;;12.20;99.90;;;;;;5036838;28;20261;-78
2023/05/21 00:49:39;;;;;;;13.50;9.20;;;12.10;99.90;;;;;;5048261;27;20200;-79
2023/05/21 00:52:07;;;;;;;15.03;9.57;;;12.10;99.90;;;;;;5042914;27;20214;-78
2023/05/21 00:54:34;;;;;;;13.13;8.73;;;12.10;99.90;;;;;;5042664;27;20255;-78
2023/05/21 00:57:03;;;;;;;12.47;9.30;;;12.10;99.90;;;;;;5049235;28;20207;-77
2023/05/21 00:59:32;;;;;;;12.03;8.80;;;12.10;99.90;;;;;;5032140;28;20223;-78
2023/05/21 01:02:03;;;;;;;13.30;8.90;;;12.10;99.90;;;;;;5069195;27;20210;-78
2023/05/21 01:04:30;;;;;;;13.37;8.90;;;12.00;99.90;;;;;;5106597;27;20244;-77
2023/05/21 01:06:58;;;;;;;14.77;8.83;;;12.00;99.90;;;;;;5041488;27;20223;-78
2023/05/21 01:09:25;;;;;;;12.57;9.07;;;12.00;99.90;;;;;;5051116;27;20275;-78
2023/05/21 01:11:53;;;;;;;14.17;9.17;;;11.80;99.90;;;;;;5050405;28;20203;-79
2023/05/21 01:14:23;;;;;;;13.20;9.17;;;11.70;99.90;;;;;;5043367;28;20234;-79
2023/05/21 01:16:51;;;;;;;12.10;8.10;;;11.70;99.90;;;;;;5034019;28;20196;-78
2023/05/21 01:19:20;;;;;;;12.83;9.07;;;11.80;99.90;;;;;;5119173;27;20651;-79
2023/05/21 01:21:50;;;;;;;18.87;9.47;;;11.80;99.90;;;;;;5135429;27;20707;-79
2023/05/21 01:24:18;;;;;;;12.00;8.43;;;11.80;99.90;;;;;;5034188;28;20232;-78
2023/05/21 01:26:45;;;;;;;14.13;8.83;;;11.80;99.90;;;;;;5042031;28;20218;-78
2023/05/21 01:29:13;;;;;;;13.73;8.97;;;11.80;99.90;;;;;;5034258;28;20306;-78
2023/05/21 01:31:56;;;;;;;13.60;8.93;;;11.70;99.90;;;;;;5033396;28;20211;-78
2023/05/21 01:34:29;;;;;;;13.67;9.03;;;11.70;99.90;;;;;;5033867;28;20594;-78
2023/05/21 01:37:06;;;;;;;16.60;9.33;;;11.50;99.90;;;;;;5033961;28;20670;-78
2023/05/21 01:39:41;;;;;;;11.00;7.83;;;11.50;99.90;;;;;;5037302;28;20210;-78
2023/05/21 01:42:10;;;;;;;12.60;8.67;;;11.30;99.90;;;;;;5048926;28;20210;-78
2023/05/21 01:44:38;;;;;;;12.77;9.13;;;11.20;99.90;;;;;;5048695;28;20231;-78
2023/05/21 01:47:05;;;;;;;12.07;8.73;;;11.20;99.90;;;;;;5053228;28;20215;-78
2023/05/21 01:49:33;;;;;;;13.87;9.17;;;11.20;99.90;;;;;;5046041;28;20260;-79
2023/05/21 01:52:01;;;;;;;14.90;9.60;;;11.20;99.90;;;;;;5042750;28;20206;-78
2023/05/21 01:54:28;;;;;;;12.50;7.83;;;11.20;99.90;;;;;;5038882;28;20223;-78
2023/05/21 01:56:56;;;;;;;12.30;8.50;;;11.00;99.90;;;;;;5049476;28;20199;-78
2023/05/21 01:59:23;;;;;;;13.27;9.07;;;10.90;99.90;;;;;;5046998;28;20203;-78
2023/05/21 02:01:50;;;;;;;15.17;9.63;;;11.10;99.90;;;;;;5033167;28;20715;-78
2023/05/21 02:04:17;;;;;;;14.23;8.87;;;11.20;99.90;;;;;;5043993;27;20261;-78
2023/05/21 02:06:44;;;;;;;12.60;8.17;;;11.30;99.90;;;;;;5050972;27;20215;-78
2023/05/21 02:09:10;;;;;;;12.33;9.13;;;11.20;99.90;;;;;;5033836;28;20256;-79
2023/05/21 02:11:37;;;;;;;13.63;8.87;;;11.10;99.90;;;;;;5040746;28;20212;-79
2023/05/21 02:14:06;;;;;;;12.43;8.70;;;11.10;99.90;;;;;;5046308;28;20222;-78
2023/05/21 02:16:33;;;;;;;12.70;8.77;;;11.00;99.90;;;;;;5032345;28;20648;-78
2023/05/21 02:19:00;;;;;;;13.60;8.80;;;11.00;99.90;;;;;;5031420;28;20199;-78
2023/05/21 02:21:27;;;;;;;15.67;9.20;;;10.90;99.90;;;;;;5031238;28;20841;-78
2023/05/21 02:23:53;;;;;;;12.23;8.23;;;11.10;99.90;;;;;;5031687;28;20215;-78
2023/05/21 02:26:21;;;;;;;12.97;9.23;;;11.00;99.90;;;;;;5031607;28;20319;-78
2023/05/21 02:28:48;;;;;;;12.23;8.90;;;10.90;99.90;;;;;;5031219;28;20208;-78
2023/05/21 02:31:16;;;;;;;13.43;8.63;;;10.80;99.90;;;;;;5032001;28;20256;-78
2023/05/21 02:33:42;;;;;;;13.37;8.73;;;10.90;99.90;;;;;;5031294;28;20227;-78
2023/05/21 02:36:11;;;;;;;11.37;8.20;;;11.00;99.90;;;;;;5031467;28;20200;-78
2023/05/21 02:38:42;;;;;;;14.53;8.77;;;11.00;99.90;;;;;;5031227;28;20196;-78
2023/05/21 02:41:09;;;;;;;13.93;8.63;;;10.90;99.90;;;;;;5030856;28;20216;-78
2023/05/21 02:43:36;;;;;;;15.17;9.83;;;10.80;99.90;;;;;;5030555;28;20649;-78
2023/05/21 02:46:04;;;;;;;15.13;8.57;;;10.90;99.90;;;;;;5031117;28;20196;-78
2023/05/21 02:48:33;;;;;;;14.13;8.97;;;10.80;99.90;;;;;;5036263;28;20223;-78
2023/05/21 02:51:00;;;;;;;11.67;8.27;;;10.70;99.90;;;;;;5045738;28;20215;-78
2023/05/21 02:53:27;;;;;;;14.47;8.33;;;10.80;99.90;;;;;;5042116;28;20220;-78
2023/05/21 02:55:53;;;;;;;11.63;7.73;;;10.60;99.90;;;;;;5032424;28;20211;-78
2023/05/21 02:58:22;;;;;;;11.03;8.33;;;10.80;99.90;;;;;;5048184;28;20775;-78
2023/05/21 03:00:49;;;;;;;10.87;7.00;;;10.40;99.90;;;;;;5035323;28;20288;-78
2023/05/21 03:03:15;;;;;;;10.53;7.27;;;10.10;99.90;;;;;;5048563;28;20235;-78
2023/05/21 03:05:44;;;;;;;10.67;7.30;;;10.00;99.90;;;;;;5030784;28;20286;-78
2023/05/21 03:08:11;;;;;;;14.17;8.10;;;10.10;99.90;;;;;;5032015;28;20220;-78
2023/05/21 03:10:38;;;;;;;16.17;8.43;;;10.30;99.90;;;;;;5031028;28;20686;-78
2023/05/21 03:13:05;;;;;;;13.00;8.70;;;10.30;99.90;;;;;;5032280;28;20242;-78
2023/05/21 03:15:33;;;;;;;12.40;8.07;;;10.30;99.90;;;;;;5050758;28;20209;-78
2023/05/21 03:18:00;;;;;;;12.97;8.20;;;10.40;99.90;;;;;;5051255;28;20253;-78
2023/05/21 03:20:27;;;;;;;13.10;8.40;;;10.50;99.90;;;;;;5050849;28;20211;-78
2023/05/21 03:22:55;;;;;;;12.73;8.90;;;10.50;99.90;;;;;;5050435;28;20298;-78
2023/05/21 03:25:24;;;;;;;12.50;8.33;;;10.40;99.90;;;;;;5050377;28;20203;-78
2023/05/21 03:27:52;;;;;;;10.83;7.60;;;10.40;99.90;;;;;;5050032;27;20243;-78
2023/05/21 03:30:21;;;;;;;12.83;9.00;;;10.50;99.90;;;;;;5049801;28;20350;-78
2023/05/21 03:32:48;;;;;;;15.53;8.13;;;10.60;99.90;;;;;;5049051;28;20215;-78
2023/05/21 03:35:15;;;;;;;13.90;9.07;;;10.60;99.90;;;;;;5040480;28;20675;-78
2023/05/21 03:37:42;;;;;;;14.17;8.80;;;10.60;99.90;;;;;;5030941;28;20695;-78
2023/05/21 03:40:11;;;;;;;13.70;8.33;;;10.50;99.90;;;;;;5036467;28;20208;-78
2023/05/21 03:42:38;;;;;;;13.67;8.03;;;10.60;99.90;;;;;;5038546;28;20276;-78
2023/05/21 03:45:06;;;;;;;14.37;8.23;;;10.50;99.90;;;;;;5030110;28;20203;-78
2023/05/21 03:47:34;;;;;;;13.27;8.70;;;10.70;99.90;;;;;;5032972;28;20223;-78
2023/05/21 03:50:01;;;;;;;11.00;7.53;;;10.70;99.90;;;;;;5048218;27;20195;-78
2023/05/21 03:52:28;;;;;;;10.90;7.50;;;10.80;99.90;;;;;;5045997;28;20202;-78
2023/05/21 03:54:55;;;;;;;7.60;5.77;;;10.70;99.90;;;;;;5031500;28;20237;-77
2023/05/21 03:57:23;;;;;;;9.07;5.93;;;10.60;99.90;;;;;;5042553;28;20288;-78
2023/05/21 03:59:50;;;;;;;9.23;7.17;;;10.60;99.90;;;;;;5032152;28;20208;-78
2023/05/21 04:02:16;;;;;;;10.77;7.23;;;10.60;99.90;;;;;;5030012;28;20257;-78
2023/05/21 04:04:46;;;;;;;12.23;8.07;;;10.60;99.90;;;;;;5040751;28;20215;-79
2023/05/21 04:07:14;;;;;;;12.10;7.70;;;10.60;99.90;;;;;;5050301;28;20223;-78
2023/05/21 04:09:43;;;;;;;13.07;7.53;;;10.50;99.90;;;;;;5049418;28;20200;-78
2023/05/21 04:12:10;;;;;;;12.67;8.87;;;10.40;99.90;;;;;;5032016;28;20207;-79
2023/05/21 04:14:38;;;;;;;15.60;8.53;;;10.20;99.90;;;;;;5049202;28;20215;-78
2023/05/21 04:17:05;;;;;;;12.23;8.50;;;10.10;99.90;;;;;;5049092;28;20209;-79
2023/05/21 04:19:33;;;;;;;10.77;7.57;;;10.40;99.90;;;;;;5049815;28;20214;-79
2023/05/21 04:22:00;;;;;;;9.97;7.10;;;10.70;99.90;;;;;;5048677;27;20203;-80
2023/05/21 04:24:27;;;;;;;11.80;8.40;;;10.80;99.90;;;;;;5034693;27;20289;-79
2023/05/21 04:26:54;;;;;;;13.83;8.63;;;11.00;99.90;;;;;;5054684;27;20200;-79
2023/05/21 04:29:21;;;;;;;10.93;8.00;;;11.10;99.90;;;;;;5051060;27;20221;-79
2023/05/21 04:31:49;;;;;;;11.57;8.27;;;11.10;99.90;;;;;;5037254;28;20209;-81
2023/05/21 04:34:17;;;;;;;10.60;8.03;;;11.20;99.90;;;;;;5048676;27;20219;-79
2023/05/21 04:36:47;;;;;;;11.80;7.77;;;11.30;99.90;;;;;;5062217;27;20832;-80
2023/05/21 04:39:14;;;;;;;9.27;7.20;;;11.40;99.90;;;;;;5041119;28;20191;-78
2023/05/21 04:41:41;;;;;;;11.10;8.00;;;11.50;99.90;;;;;;5046780;28;20231;-79
2023/05/21 04:44:08;;;;;;;11.87;8.03;;;11.60;99.90;;;;;;5043070;28;20219;-79
2023/05/21 04:46:36;;;;;;;12.47;8.10;;;11.70;99.90;;;;;;5032611;28;20290;-79
2023/05/21 04:49:04;;;;;;;12.47;8.00;;;11.80;99.90;;;;;;5060660;27;20592;-79
2023/05/21 04:51:31;;;;;;;11.80;8.13;;;11.90;99.90;;;;;;5039236;28;20204;-79
2023/05/21 04:53:58;;;;;;;11.03;8.10;;;12.10;99.90;;;;;;5030238;28;20224;-78
2023/05/21 04:56:26;;;;;;;12.67;7.60;;;12.00;99.90;;;;;;5038729;28;20199;-78
2023/05/21 04:58:53;;;;;;;13.57;7.50;;;12.00;99.90;;;;;;5037157;28;20652;-77
2023/05/21 05:01:22;;;;;;;10.40;7.33;;;11.90;99.90;;;;;;5032230;28;20221;-79
2023/05/21 05:03:49;;;;;;;11.17;7.53;;;12.00;99.90;;;;;;5043527;28;20223;-79
2023/05/21 05:06:17;;;;;;;11.17;8.13;;;12.00;99.90;;;;;;5070786;27;20199;-79
2023/05/21 05:08:45;;;;;;;12.27;8.20;;;12.00;99.90;;;;;;5059354;27;20219;-79
2023/05/21 05:11:12;;;;;;;13.00;8.33;;;12.10;99.90;;;;;;5041202;27;20253;-79
2023/05/21 05:13:39;;;;;;;15.47;8.60;;;12.10;99.90;;;;;;5036578;28;20282;-79
2023/05/21 05:16:06;;;;;;;15.20;8.27;;;12.10;99.90;;;;;;5038366;27;20219;-79
2023/05/21 05:18:33;;;;;;;11.60;8.60;;;12.20;99.90;;;;;;5038253;28;20556;-79
2023/05/21 05:21:00;;;;;;;11.83;8.47;;;12.20;99.90;;;;;;5054590;27;20204;-79
2023/05/21 05:23:28;;;;;;;12.13;8.80;;;12.40;99.90;;;;;;5060641;27;20219;-79
2023/05/21 05:25:55;;;;;;;14.03;9.00;;;12.50;99.90;;;;;;5032227;28;20231;-81
2023/05/21 05:28:22;;;;;;;13.27;8.17;;;12.60;99.90;;;;;;5041986;28;20304;-78
2023/05/21 05:30:49;;;;;;;14.87;9.00;;;12.60;99.90;;;;;;5040986;28;20214;-78
2023/05/21 05:33:16;;;;;;;15.33;9.77;;;12.60;99.90;;;;;;5061394;27;20223;-79
2023/05/21 05:35:42;;;;;;;13.60;9.67;;;12.60;99.90;;;;;;5061886;27;20210;-79
2023/05/21 05:38:09;;;;;;;14.80;9.93;;;12.60;99.90;;;;;;5071698;27;20207;-79
2023/05/21 05:40:37;;;;;;;17.93;9.80;;;12.60;99.90;;;;;;5037274;28;20207;-79
2023/05/21 05:43:04;;;;;;;14.43;9.73;;;12.50;99.90;;;;;;5049571;27;20223;-78
2023/05/21 05:45:31;;;;;;;14.30;9.73;;;12.50;99.90;;;;;;5037988;28;20200;-79
2023/05/21 05:47:58;;;;;;;14.60;10.17;;;12.50;99.90;;;;;;5036721;28;20291;-80
2023/05/21 05:50:25;;;;;;;13.83;9.67;;;12.50;99.90;;;;;;5031760;28;20204;-79
2023/05/21 05:52:52;;;;;;;15.33;10.47;;;12.50;99.90;;;;;;5045229;28;20293;-80
2023/05/21 05:55:18;;;;;;;15.73;10.57;;;12.60;99.90;;;;;;5035604;27;20289;-78
2023/05/21 05:57:47;;;;;;;14.23;10.30;;;12.50;99.90;;;;;;5039063;27;20199;-79
2023/05/21 06:00:14;;;;;;;16.33;10.57;;;12.60;99.90;;;;;;5039787;27;20218;-78
2023/05/21 06:02:41;;;;;;;15.83;10.20;;;12.80;99.90;;;;;;5036154;27;20202;-79
2023/05/21 06:05:09;;;;;;;17.97;11.07;;;12.80;99.90;;;;;;5042550;27;20204;-79
2023/05/21 06:07:37;;;;;;;21.27;11.63;;;12.90;99.90;;;;;;5063127;27;20204;-79
2023/05/21 06:10:05;;;;;;;15.60;10.33;;;13.00;99.90;;;;;;5040467;27;20203;-79
2023/05/21 06:12:32;;;;;;;18.87;11.70;;;12.90;99.90;;;;;;5047596;28;20263;-79
2023/05/21 06:15:00;;;;;;;17.93;11.17;;;13.10;99.90;;;;;;5053124;27;20215;-78
2023/05/21 06:17:27;;;;;;;17.60;10.13;;;13.10;99.90;;;;;;5085078;27;20294;-79
2023/05/21 06:19:54;;;;;;;15.83;10.63;;;13.20;99.90;;;;;;5064281;27;20274;-79
2023/05/21 06:22:21;;;;;;;16.93;11.60;;;13.40;99.90;;;;;;5041061;28;20200;-78
2023/05/21 06:24:48;;;;;;;16.80;11.90;;;13.30;99.90;;;;;;5042838;28;20709;-79
2023/05/21 06:27:15;;;;;;;16.10;10.93;;;13.50;99.90;;;;;;5039362;28;20204;-80
2023/05/21 06:29:41;;;;;;;15.63;10.23;;;13.60;99.90;;;;;;5069505;27;20269;-80
2023/05/21 06:32:10;;;;;;;17.90;11.47;;;13.80;99.90;;;;;;5033634;28;20571;-79
2023/05/21 06:34:37;;;;;;;15.97;11.13;;;13.90;99.90;;;;;;5043008;27;20796;-80
2023/05/21 06:37:04;;;;;;;16.07;11.23;;;13.90;99.90;;;;;;5039269;27;21182;-79
2023/05/21 06:39:30;;;;;;;17.43;11.17;;;14.00;99.90;;;;;;5036220;27;20203;-80
2023/05/21 06:41:57;;;;;;;16.97;11.87;;;14.00;99.90;;;;;;5041609;27;20207;-79
2023/05/21 06:44:24;;;;;;;19.03;12.93;;;14.10;99.90;;;;;;5048494;27;20219;-78
2023/05/21 06:46:51;;;;;;;17.90;12.77;;;14.20;99.90;;;;;;5036524;27;20227;-78
2023/05/21 06:49:19;;;;;;;18.70;12.03;;;14.40;99.90;;;;;;5037887;27;20223;-78
2023/05/21 06:51:46;;;;;;;18.53;13.10;;;14.40;99.90;;;;;;5043392;27;20230;-79
2023/05/21 06:54:13;;;;;;;21.10;13.57;;;14.30;99.90;;;;;;5033663;27;20254;-79
2023/05/21 06:56:40;;;;;;;19.17;13.33;;;14.40;99.90;;;;;;5040896;27;20299;-78
2023/05/21 06:59:07;;;;;;;21.97;13.77;;;14.60;99.90;;;;;;5054250;27;20209;-78
2023/05/21 07:01:34;;;;;;;19.00;13.77;;;14.50;99.90;;;;;;5048374;28;20206;-78
2023/05/21 07:04:01;;;;;;;21.90;14.17;;;14.40;99.90;;;;;;5041048;28;20247;-78
2023/05/21 07:06:29;;;;;;;22.47;14.70;;;14.50;99.90;;;;;;5043544;27;20203;-78
2023/05/21 07:08:56;;;;;;;19.80;14.57;;;14.50;99.90;;;;;;5037656;28;20211;-78
2023/05/21 07:11:27;;;;;;;22.27;14.57;;;14.70;99.90;;;;;;5081516;27;20662;-78
2023/05/21 07:13:55;;;;;;;21.37;15.83;;;14.70;99.90;;;;;;5039317;28;20500;-78
2023/05/21 07:16:22;;;;;;;23.57;16.40;;;14.80;99.90;;;;;;5034525;28;20298;-78
2023/05/21 07:18:48;;;;;;;23.87;15.93;;;14.90;99.90;;;;;;5071891;27;20217;-79
2023/05/21 07:21:15;;;;;;;22.58;16.02;;;15.00;99.90;;;;;;5041015;27;20230;-77
2023/05/21 07:23:43;;;;;;;21.43;15.73;;;15.00;99.90;;;;;;5031830;28;20223;-78
2023/05/21 07:26:11;;;;;;;22.45;15.02;;;15.20;99.90;;;;;;5043537;27;20222;-78
2023/05/21 07:28:38;;;;;;;23.65;16.73;;;15.20;99.90;;;;;;5034768;28;20230;-77
2023/05/21 07:31:05;;;;;;;22.10;17.10;;;15.50;99.90;;;;;;5029864;28;20214;-78
2023/05/21 07:33:31;;;;;;;23.33;16.97;;;15.40;99.90;;;;;;5064371;27;20215;-78
2023/05/21 07:35:58;;;;;;;24.25;17.38;;;15.30;99.90;;;;;;5035660;28;20210;-77
2023/05/21 07:38:25;;;;;;;24.00;17.67;;;15.30;99.90;;;;;;5072129;27;20222;-78
2023/05/21 07:40:53;;;;;;;23.20;16.25;;;15.60;99.90;;;;;;5034185;27;20573;-78
2023/05/21 07:43:20;;;;;;;22.58;16.73;;;15.80;99.90;;;;;;5041868;28;20310;-79
2023/05/21 07:45:47;;;;;;;24.08;17.80;;;15.80;99.90;;;;;;5041982;28;20204;-78
2023/05/21 07:48:14;;;;;;;26.65;19.05;;;15.90;99.90;;;;;;5097163;27;20204;-78
2023/05/21 07:50:41;;;;;;;26.20;19.10;;;15.90;99.90;;;;;;5036893;28;20207;-78
2023/05/21 07:53:07;;;;;;;24.63;18.52;;;16.00;99.90;;;;;;5035355;28;20219;-78
2023/05/21 07:55:34;;;;;;;23.70;17.10;;;16.10;99.90;;;;;;5037313;27;20199;-77
2023/05/21 07:58:02;;;;;;;24.63;16.75;;;16.20;99.90;;;;;;5036078;28;20257;-78
2023/05/21 08:00:29;;;;;;;26.23;18.48;;;16.30;99.90;;;;;;5082091;27;20210;-77
2023/05/21 08:02:56;;;;;;;27.35;18.92;;;16.10;99.90;;;;;;5049467;27;20238;-77
2023/05/21 08:05:24;;;;;;;26.10;19.33;;;16.20;99.90;;;;;;5049375;27;20207;-79
2023/05/21 08:07:51;;;;;;;24.25;18.38;;;16.30;99.90;;;;;;5043317;28;20207;-78
2023/05/21 08:10:18;;;;;;;23.92;17.83;;;16.40;99.90;;;;;;5041680;28;20245;-78
2023/05/21 08:12:44;;;;;;;25.40;18.80;;;16.30;99.90;;;;;;5035028;28;20199;-78
2023/05/21 08:15:13;;;;;;;23.20;17.83;;;16.50;99.90;;;;;;5039636;27;20215;-78
2023/05/21 08:17:39;;;;;;;26.55;19.10;;;16.60;99.90;;;;;;5042128;28;20559;-79
2023/05/21 08:20:07;;;;;;;23.17;17.17;;;16.80;99.90;;;;;;5037458;28;20207;-78
2023/05/21 08:22:34;;;;;;;24.48;18.38;;;16.80;99.90;;;;;;5040625;28;20241;-79
2023/05/21 08:25:01;;;;;;;25.27;19.38;;;16.70;99.90;;;;;;5034841;28;20231;-79
2023/05/21 08:27:28;;;;;;;26.92;19.42;;;16.80;99.90;;;;;;5030671;28;20199;-79
2023/05/21 08:29:54;;;;;;;28.05;20.63;;;16.90;99.90;;;;;;5036133;28;20592;-78
2023/05/21 08:32:23;;;;;;;26.08;20.25;;;16.90;99.90;;;;;;5034715;28;20587;-79
2023/05/21 08:34:49;;;;;;;25.60;18.85;;;17.10;99.90;;;;;;5032437;28;20310;-78
2023/05/21 08:37:17;;;;;;;25.65;19.17;;;17.40;99.90;;;;;;5034530;28;20306;-78
2023/05/21 08:39:44;;;;;;;27.00;19.83;;;17.50;99.90;;;;;;5032944;28;20282;-78
2023/05/21 08:42:18;;;;;;;26.70;18.88;;;17.70;99.90;;;;;;5034931;28;20207;-78
2023/05/21 08:44:51;;;;;;;25.27;19.70;;;17.70;99.90;;;;;;5033931;28;20219;-78
2023/05/21 08:47:23;;;;;;;26.85;20.67;;;17.70;99.90;;;;;;5039043;28;20200;-78
2023/05/21 08:49:51;;;;;;;28.42;22.00;;;17.40;99.90;;;;;;5037421;28;20227;-78
2023/05/21 08:52:20;;;;;;;27.70;19.73;;;17.50;99.90;;;;;;5029983;28;20203;-79
2023/05/21 08:54:49;;;;;;;26.60;20.77;;;17.70;99.90;;;;;;5035133;28;20216;-78
2023/05/21 08:57:18;;;;;;;28.85;21.52;;;18.00;99.90;;;;;;5033507;28;20291;-80
2023/05/21 08:59:45;;;;;;;26.35;21.42;;;18.30;99.90;;;;;;5033377;28;20577;-79
2023/05/21 09:02:14;;;;;;;26.80;20.35;;;18.20;99.90;;;;;;5037377;28;20224;-79
2023/05/21 09:04:41;;;;;;;25.00;19.88;;;18.10;99.90;;;;;;5038522;28;20228;-78
2023/05/21 09:07:10;;;;;;;27.45;20.85;;;18.30;99.90;;;;;;5043001;28;20579;-79
2023/05/21 09:09:44;;;;;;;26.35;20.85;;;18.20;99.90;;;;;;5038268;28;20292;-80
2023/05/21 09:12:11;;;;;;;27.33;20.55;;;18.10;99.90;;;;;;5038980;28;20204;-81
2023/05/21 09:14:39;;;;;;;28.45;21.58;;;18.40;99.90;;;;;;5036237;28;20256;-79
2023/05/21 09:17:05;;;;;;;25.65;20.67;;;18.80;99.90;;;;;;5039996;28;20200;-79
2023/05/21 09:19:32;;;;;;;28.02;21.63;;;18.90;99.90;;;;;;5042768;27;20200;-79
2023/05/21 09:22:02;;;;;;;29.90;22.13;;;18.80;99.90;;;;;;5043813;28;21689;-78
2023/05/21 09:24:32;;;;;;;27.73;20.50;;;18.70;99.90;;;;;;5044558;27;20318;-78
2023/05/21 09:26:59;;;;;;;26.20;20.15;;;19.00;99.90;;;;;;5076798;27;20211;-79
2023/05/21 09:29:26;;;;;;;26.23;19.42;;;19.00;99.90;;;;;;5046573;28;20222;-78
2023/05/21 09:31:53;;;;;;;27.80;21.42;;;19.30;99.90;;;;;;5031276;28;20300;-80
2023/05/21 09:34:20;;;;;;;27.77;21.40;;;19.50;99.90;;;;;;5040176;28;20238;-79
2023/05/21 09:36:49;;;;;;;25.80;20.33;;;19.70;99.90;;;;;;5041729;28;20212;-78
2023/05/21 09:39:27;;;;;;;24.77;19.67;;;20.00;99.90;;;;;;5035881;28;20206;-79
2023/05/21 09:41:57;;;;;;;24.27;19.45;;;20.10;99.90;;;;;;5036257;28;20308;-79
2023/05/21 09:44:24;;;;;;;25.65;19.85;;;20.30;99.90;;;;;;5037170;28;20232;-79
2023/05/21 09:46:56;;;;;;;25.77;21.05;;;20.40;99.90;;;;;;5037725;28;20563;-79
2023/05/21 09:49:25;;;;;;;28.00;20.75;;;20.30;99.90;;;;;;5050365;27;20597;-79
2023/05/21 09:51:55;;;;;;;25.20;20.30;;;20.30;99.90;;;;;;5046490;28;20199;-79
2023/05/21 09:54:22;;;;;;;26.75;19.40;;;20.50;99.90;;;;;;5047941;27;20227;-79
2023/05/21 09:56:50;;;;;;;25.40;20.90;;;20.50;99.90;;;;;;5033426;27;20650;-79
2023/05/21 09:59:19;;;;;;;25.70;20.67;;;20.50;99.90;;;;;;5044583;27;20687;-79
2023/05/21 10:01:46;;;;;;;27.15;20.90;;;20.40;99.90;;;;;;5038594;28;21089;-80
2023/05/21 10:04:13;;;;;;;26.00;20.55;;;20.40;99.90;;;;;;5035732;28;20230;-79
2023/05/21 10:06:43;;;;;;;26.25;20.88;;;20.70;99.90;;;;;;5046905;28;20207;-79
2023/05/21 10:09:11;;;;;;;27.48;20.85;;;21.00;99.90;;;;;;5100068;27;20223;-78
2023/05/21 10:11:39;;;;;;;24.50;19.35;;;21.10;99.90;;;;;;5038662;28;20567;-78
2023/05/21 10:14:09;;;;;;;24.98;20.08;;;20.90;99.90;;;;;;5039868;27;20759;-78
2023/05/21 10:16:37;;;;;;;24.42;20.35;;;21.50;99.90;;;;;;5046969;28;20700;-79
2023/05/21 10:19:09;;;;;;;26.58;19.77;;;21.50;99.90;;;;;;5047034;28;20199;-81
2023/05/21 10:21:38;;;;;;;24.25;19.95;;;21.50;99.90;;;;;;5058160;27;20203;-78
2023/05/21 10:24:06;;;;;;;26.88;20.23;;;21.40;99.90;;;;;;5047204;28;20219;-78
2023/05/21 10:26:34;;;;;;;23.33;19.13;;;21.60;99.90;;;;;;5039044;28;20210;-80
2023/05/21 10:29:02;;;;;;;22.80;19.10;;;22.10;99.90;;;;;;5038129;28;20204;-79
2023/05/21 10:31:29;;;;;;;23.83;18.88;;;22.30;99.90;;;;;;5045781;28;20723;-80
2023/05/21 10:33:58;;;;;;;23.55;18.48;;;22.50;99.90;;;;;;5041245;28;20225;-80
2023/05/21 10:36:28;;;;;;;24.00;18.83;;;22.30;99.90;;;;;;5043884;28;20393;-80
2023/05/21 10:38:56;;;;;;;21.88;18.00;;;21.80;99.90;;;;;;5038768;28;20199;-79
2023/05/21 10:41:25;;;;;;;21.63;17.23;;;21.50;99.90;;;;;;5072133;27;20211;-79
2023/05/21 10:44:03;;;;;;;21.88;16.95;;;22.00;99.90;;;;;;5045762;28;20230;-80
2023/05/21 10:46:56;;;;;;;22.00;17.42;;;22.00;99.90;;;;;;5048342;27;20579;-82
2023/05/21 10:49:44;;;;;;;22.25;17.50;;;21.90;99.90;;;;;;5035074;28;20229;-80
2023/05/21 10:52:25;;;;;;;22.67;16.98;;;21.50;99.90;;;;;;5031746;28;20620;-79
2023/05/21 10:54:59;;;;;;;21.73;17.02;;;21.80;99.90;;;;;;5040010;28;20302;-79
2023/05/21 10:57:54;;;;;;;20.88;16.38;;;21.90;99.90;;;;;;5058695;27;20587;-79
2023/05/21 11:00:22;;;;;;;21.42;17.45;;;22.10;99.90;;;;;;5040768;28;20211;-79
2023/05/21 11:02:50;;;;;;;21.50;17.02;;;22.20;99.90;;;;;;5058221;27;20287;-81
2023/05/21 11:05:38;;;;;;;23.20;18.00;;;22.40;99.90;;;;;;5046576;28;20655;-80
2023/05/21 11:08:05;;;;;;;20.23;16.42;;;22.40;99.90;;;;;;5040531;27;20200;-82
2023/05/21 11:10:37;;;;;;;19.65;15.85;;;22.30;99.90;;;;;;5041222;28;20277;-78
2023/05/21 11:13:08;;;;;;;21.70;17.23;;;22.30;99.90;;;;;;5034119;28;20215;-79
2023/05/21 11:16:06;;;;;;;20.13;16.35;;;22.40;99.90;;;;;;5031974;28;20203;-79
2023/05/21 11:19:06;;;;;;;21.20;16.00;;;22.50;99.90;;;;;;5043026;28;20203;-80
2023/05/21 11:21:40;;;;;;;19.92;16.30;;;22.20;99.90;;;;;;4963123;28;20198;-78
2023/05/21 11:24:09;;;;;;;20.63;16.00;;;22.80;99.90;;;;;;4952248;28;20226;-77
2023/05/21 11:27:05;;;;;;;22.73;17.27;;;22.30;99.90;;;;;;4995231;28;20282;-80
2023/05/21 11:29:39;;;;;;;21.55;16.33;;;22.30;99.90;;;;;;5048689;28;20268;-80
2023/05/21 11:32:07;;;;;;;20.50;16.65;;;22.40;99.90;;;;;;5029986;28;20286;-78
2023/05/21 11:34:38;;;;;;;20.88;16.98;;;22.50;99.90;;;;;;5030813;28;20219;-79
2023/05/21 11:37:29;;;;;;;20.65;16.00;;;22.80;99.90;;;;;;5041629;27;20215;-80
2023/05/21 11:39:58;;;;;;;20.95;16.73;;;22.90;99.90;;;;;;5046180;28;20215;-81
2023/05/21 11:42:31;;;;;;;19.38;15.45;;;23.20;99.90;;;;;;5030664;28;20238;-79
2023/05/21 11:44:58;;;;;;;20.02;16.30;;;23.20;99.90;;;;;;5041166;28;20291;-78
2023/05/21 11:47:27;;;;;;;21.35;17.08;;;23.60;99.90;;;;;;5042860;27;20233;-80
2023/05/21 11:49:54;;;;;;;20.67;15.85;;;23.20;99.90;;;;;;5068910;27;20218;-79
2023/05/21 11:52:21;;;;;;;21.33;16.35;;;22.80;99.90;;;;;;5062801;27;20207;-79
2023/05/21 11:54:54;;;;;;;20.58;16.02;;;23.00;99.90;;;;;;5035433;28;20222;-78
2023/05/21 11:57:21;;;;;;;20.92;15.65;;;22.90;99.90;;;;;;5042614;28;20203;-78
2023/05/21 11:59:50;;;;;;;22.33;16.38;;;22.80;99.90;;;;;;5035081;28;20567;-79
2023/05/21 12:02:17;;;;;;;22.48;16.65;;;23.20;99.90;;;;;;5042308;27;20297;-78
2023/05/21 12:04:47;;;;;;;19.50;15.95;;;23.50;99.90;;;;;;5034449;28;20239;-78
2023/05/21 12:07:17;;;;;;;20.17;16.65;;;23.90;99.90;;;;;;5073174;27;20224;-77
2023/05/21 12:09:45;;;;;;;18.52;15.10;;;23.80;99.90;;;;;;5041124;28;20223;-79
2023/05/21 12:12:15;;;;;;;20.25;15.48;;;24.30;99.90;;;;;;5046497;28;20210;-79
2023/05/21 12:14:45;;;;;;;20.05;15.55;;;24.00;99.90;;;;;;5038635;28;20238;-79
2023/05/21 12:17:13;;;;;;;19.15;15.05;;;24.10;99.90;;;;;;5032629;28;20643;-79
2023/05/21 12:19:40;;;;;;;20.13;15.75;;;24.00;99.90;;;;;;5054631;27;20208;-81
2023/05/21 12:22:08;;;;;;;18.50;14.80;;;23.90;99.90;;;;;;5034511;28;20202;-79
2023/05/21 12:24:36;;;;;;;19.88;15.80;;;23.90;99.90;;;;;;5036102;28;20219;-78
2023/05/21 12:27:08;;;;;;;19.33;15.90;;;23.80;99.90;;;;;;5037372;28;20204;-78
2023/05/21 12:29:38;;;;;;;19.88;14.40;;;24.10;99.90;;;;;;5028365;28;20210;-78
2023/05/21 12:32:07;;;;;;;18.83;14.35;;;24.10;99.90;;;;;;5037691;28;20202;-77
2023/05/21 12:34:38;;;;;;;18.50;13.98;;;24.20;99.90;;;;;;5040403;28;20225;-80
2023/05/21 12:37:06;;;;;;;23.58;15.80;;;24.10;99.90;;;;;;5028744;27;20196;-78